Time;durP1;ratioP1;P1;durP2;ratioP2;P2;SDS_P1;SDS_P2;PMS_P1;PMS_P2;Temp;Humidity;BMP_temperature;BMP_pressure;BME280_temperature;BME280_humidity;BME280_pressure;Samples;Min_cycle;Max_cycle;Signal;HPM_P1;HPM_P2
2024/04/13 00:01:09;;;;;;;0.10;0.10;;;;;;;16.04;67.58;101489.75;7359107;19;20082;-62
2024/04/13 00:03:35;;;;;;;0.10;0.10;;;;;;;16.03;67.34;101488.03;7351995;19;20002;-62
2024/04/13 00:06:00;;;;;;;0.10;0.10;;;;;;;16.03;67.02;101496.78;7356858;19;20046;-62
2024/04/13 00:08:26;;;;;;;0.10;0.10;;;;;;;16.02;67.28;101494.22;7347179;19;20477;-63
2024/04/13 00:10:51;;;;;;;0.10;0.10;;;;;;;16.03;67.25;101494.16;7359757;19;20079;-62
2024/04/13 00:13:17;;;;;;;0.10;0.10;;;;;;;16.04;67.40;101495.00;7357123;19;20021;-62
2024/04/13 00:15:42;;;;;;;0.10;0.10;;;;;;;16.01;67.30;101495.09;7357977;19;20031;-62
2024/04/13 00:18:08;;;;;;;0.10;0.10;;;;;;;16.04;67.07;101489.75;7362328;19;20007;-62
2024/04/13 00:20:33;;;;;;;0.10;0.10;;;;;;;16.02;67.05;101497.69;7359685;19;20018;-61
2024/04/13 00:23:02;;;;;;;0.10;0.10;;;;;;;16.03;66.83;101493.28;7357283;19;20014;-62
2024/04/13 00:25:30;;;;;;;0.10;0.10;;;;;;;15.86;67.19;101470.09;7358514;19;20490;-61
2024/04/13 00:27:55;;;;;;;0.20;0.20;;;;;;;16.00;67.08;101488.97;7352825;19;20014;-62
2024/04/13 00:30:22;;;;;;;0.10;0.10;;;;;;;15.98;66.87;101482.03;7360894;19;20037;-62
2024/04/13 00:32:48;;;;;;;0.10;0.10;;;;;;;15.97;67.06;101483.81;7358088;19;20023;-62
2024/04/13 00:35:13;;;;;;;0.10;0.10;;;;;;;15.94;66.89;101472.50;7359880;19;20365;-62
2024/04/13 00:37:39;;;;;;;0.10;0.10;;;;;;;15.91;66.95;101473.44;7353745;19;20436;-61
2024/04/13 00:40:05;;;;;;;0.10;0.10;;;;;;;15.90;67.01;101476.16;7356788;19;20016;-61
2024/04/13 00:42:30;;;;;;;0.10;0.10;;;;;;;15.89;67.20;101469.16;7354697;19;20007;-62
2024/04/13 00:45:03;;;;;;;0.10;0.10;;;;;;;15.87;67.12;101458.69;7357179;19;20375;-63
2024/04/13 00:47:29;;;;;;;0.10;0.10;;;;;;;15.85;66.45;101451.72;7355381;19;20467;-62
2024/04/13 00:49:55;;;;;;;0.10;0.10;;;;;;;15.78;66.75;101451.94;7356661;19;20604;-62
2024/04/13 00:52:24;;;;;;;0.10;0.10;;;;;;;15.79;67.03;101448.38;7351720;19;20113;-62
2024/04/13 00:54:55;;;;;;;0.10;0.10;;;;;;;15.74;67.09;101445.03;7359163;19;20013;-62
2024/04/13 00:57:26;;;;;;;0.10;0.10;;;;;;;15.69;66.65;101457.50;7359367;19;20105;-62
2024/04/13 00:59:52;;;;;;;0.10;0.10;;;;;;;15.46;66.78;101413.44;7348509;19;20014;-62
2024/04/13 01:02:19;;;;;;;0.10;0.10;;;;;;;15.51;67.06;101431.69;7359848;19;20038;-62
2024/04/13 01:04:50;;;;;;;0.10;0.10;;;;;;;15.58;66.92;101443.78;7350966;19;20029;-63
2024/04/13 01:07:19;;;;;;;0.10;0.10;;;;;;;15.52;67.19;101446.63;7360483;19;20060;-61
2024/04/13 01:09:46;;;;;;;0.10;0.10;;;;;;;15.48;67.25;101448.47;7355360;19;20822;-61
2024/04/13 01:12:12;;;;;;;0.10;0.10;;;;;;;15.45;67.43;101456.44;7355598;19;20593;-62
2024/04/13 01:14:38;;;;;;;0.10;0.10;;;;;;;15.41;67.14;101459.22;7353798;19;20463;-63
2024/04/13 01:17:03;;;;;;;0.10;0.10;;;;;;;15.36;67.51;101454.13;7361666;19;20042;-61
2024/04/13 01:19:29;;;;;;;0.10;0.10;;;;;;;15.35;67.59;101447.13;7366159;19;20010;-62
2024/04/13 01:21:55;;;;;;;0.03;0.03;;;;;;;15.32;67.45;101439.31;7364083;19;20632;-61
2024/04/13 01:24:21;;;;;;;0.10;0.10;;;;;;;15.31;67.44;101442.88;7363940;19;20011;-61
2024/04/13 01:26:48;;;;;;;0.08;0.08;;;;;;;15.29;67.62;101452.56;7367335;19;20053;-62
2024/04/13 01:29:14;;;;;;;0.10;0.10;;;;;;;15.12;67.20;101423.28;7359238;19;20791;-62
2024/04/13 01:31:39;;;;;;;0.10;0.10;;;;;;;15.27;67.69;101450.00;7362741;19;20019;-61
2024/04/13 01:34:05;;;;;;;0.10;0.10;;;;;;;15.27;67.66;101443.88;7362943;19;20407;-62
2024/04/13 01:36:39;;;;;;;0.15;0.15;;;;;;;15.27;67.67;101434.19;7364799;19;20549;-62
2024/04/13 01:39:07;;;;;;;0.10;0.10;;;;;;;15.23;68.33;101422.03;7365464;19;20010;-62
2024/04/13 01:41:45;;;;;;;0.10;0.10;;;;;;;15.28;67.59;101425.41;7364967;19;20022;-62
2024/04/13 01:44:11;;;;;;;0.10;0.10;;;;;;;15.24;68.23;101413.22;7365254;19;20015;-61
2024/04/13 01:46:38;;;;;;;0.10;0.10;;;;;;;15.20;68.27;101395.81;7360960;19;20010;-61
2024/04/13 01:49:04;;;;;;;0.10;0.10;;;;;;;15.25;68.23;101409.69;7365317;19;20082;-61
2024/04/13 01:51:31;;;;;;;0.10;0.10;;;;;;;15.26;67.90;101406.19;7360767;19;20010;-62
2024/04/13 01:53:56;;;;;;;0.10;0.10;;;;;;;15.26;68.28;101395.66;7354575;19;20559;-62
2024/04/13 01:56:22;;;;;;;0.10;0.10;;;;;;;15.27;68.11;101392.09;7359913;19;20006;-62
2024/04/13 01:58:48;;;;;;;0.10;0.10;;;;;;;15.23;67.77;101394.88;7357543;19;20048;-62
2024/04/13 02:01:13;;;;;;;0.10;0.10;;;;;;;15.13;67.46;101367.13;7361851;19;20056;-62
2024/04/13 02:03:38;;;;;;;0.10;0.10;;;;;;;15.27;68.01;101385.97;7359800;19;20002;-61
2024/04/13 02:06:04;;;;;;;0.10;0.10;;;;;;;15.09;67.70;101355.81;7363693;19;20386;-62
2024/04/13 02:08:32;;;;;;;0.10;0.10;;;;;;;15.24;67.36;101381.66;7365603;19;20017;-62
2024/04/13 02:10:59;;;;;;;0.10;0.10;;;;;;;15.21;67.58;101368.63;7364709;19;20482;-62
2024/04/13 02:13:24;;;;;;;0.20;0.20;;;;;;;15.20;68.06;101384.44;7366412;19;20021;-61
2024/04/13 02:15:50;;;;;;;0.10;0.10;;;;;;;15.16;68.06;101373.16;7368217;19;20010;-62
2024/04/13 02:18:17;;;;;;;0.10;0.10;;;;;;;15.16;67.83;101378.44;7366541;19;20014;-63
2024/04/13 02:20:43;;;;;;;0.10;0.10;;;;;;;15.07;67.78;101357.66;7365749;19;20011;-61
2024/04/13 02:23:09;;;;;;;0.10;0.10;;;;;;;15.12;67.66;101366.28;7366168;19;20042;-62
2024/04/13 02:25:36;;;;;;;0.10;0.10;;;;;;;15.09;67.71;101366.34;7356950;19;20491;-62
2024/04/13 02:28:04;;;;;;;0.10;0.10;;;;;;;15.01;67.94;101352.59;7363387;19;21921;-62
2024/04/13 02:30:30;;;;;;;0.10;0.10;;;;;;;14.94;68.22;101336.13;7357924;19;20497;-62
2024/04/13 02:32:57;;;;;;;0.20;0.20;;;;;;;15.01;68.20;101342.94;7365084;19;20082;-62
2024/04/13 02:35:23;;;;;;;0.10;0.10;;;;;;;14.97;68.14;101329.91;7364636;19;20023;-62
2024/04/13 02:37:48;;;;;;;0.10;0.10;;;;;;;14.98;68.64;101329.84;7365281;19;20018;-62
2024/04/13 02:40:16;;;;;;;0.10;0.10;;;;;;;14.97;68.37;101343.06;7363930;19;20033;-62
2024/04/13 02:42:42;;;;;;;0.10;0.10;;;;;;;14.85;68.48;101320.66;7364873;19;20587;-61
2024/04/13 02:45:10;;;;;;;0.20;0.20;;;;;;;14.95;68.30;101347.50;7364600;19;20011;-62
2024/04/13 02:47:35;;;;;;;0.10;0.10;;;;;;;14.91;68.04;101330.13;7361291;19;20437;-62
2024/04/13 02:50:01;;;;;;;0.10;0.10;;;;;;;14.88;68.78;101330.19;7366244;19;20042;-62
2024/04/13 02:52:28;;;;;;;0.10;0.10;;;;;;;14.87;68.24;101328.47;7361113;19;20010;-62
2024/04/13 02:54:54;;;;;;;0.10;0.10;;;;;;;14.82;68.54;101335.66;7363381;19;20085;-61
2024/04/13 02:57:19;;;;;;;0.10;0.10;;;;;;;14.82;68.40;101340.91;7360295;19;20094;-62
2024/04/13 02:59:45;;;;;;;0.10;0.10;;;;;;;14.74;68.51;101331.47;7364303;19;20429;-63
2024/04/13 03:02:12;;;;;;;0.10;0.10;;;;;;;14.76;68.69;101327.03;7364273;19;20006;-62
2024/04/13 03:04:38;;;;;;;0.10;0.10;;;;;;;14.74;68.59;101328.81;7362555;19;20748;-62
2024/04/13 03:07:03;;;;;;;0.15;0.15;;;;;;;14.71;68.71;101326.31;7366940;19;20007;-62
2024/04/13 03:09:29;;;;;;;0.10;0.10;;;;;;;14.69;68.84;101299.19;7362131;19;20070;-61
2024/04/13 03:11:56;;;;;;;0.10;0.10;;;;;;;14.68;69.03;101292.22;7362925;19;20389;-63
2024/04/13 03:14:22;;;;;;;0.10;0.10;;;;;;;14.67;68.90;101294.91;7334839;19;20034;-62
2024/04/13 03:16:47;;;;;;;0.10;0.10;;;;;;;14.66;68.81;101288.78;7362239;19;20388;-62
2024/04/13 03:19:15;;;;;;;0.10;0.10;;;;;;;14.67;68.98;101279.97;7364950;19;20481;-62
2024/04/13 03:21:41;;;;;;;0.10;0.10;;;;;;;14.65;68.84;101276.56;7362321;19;20049;-62
2024/04/13 03:24:06;;;;;;;0.05;0.05;;;;;;;14.65;68.95;101286.19;7360277;19;20862;-62
2024/04/13 03:26:32;;;;;;;0.10;0.10;;;;;;;14.64;68.60;101280.06;7358737;19;20547;-62
2024/04/13 03:28:57;;;;;;;0.10;0.10;;;;;;;14.57;68.68;101262.78;7361522;19;20025;-62
2024/04/13 03:31:22;;;;;;;0.10;0.10;;;;;;;14.63;68.62;101282.75;7358646;19;20010;-61
2024/04/13 03:33:48;;;;;;;0.10;0.10;;;;;;;14.62;68.64;101271.38;7360819;19;20361;-61
2024/04/13 03:36:14;;;;;;;0.10;0.10;;;;;;;14.62;69.18;101263.50;7362122;19;20038;-62
2024/04/13 03:38:40;;;;;;;0.10;0.10;;;;;;;14.63;68.59;101266.97;7365412;19;20017;-62
2024/04/13 03:41:07;;;;;;;0.10;0.10;;;;;;;14.62;69.32;101266.13;7365621;19;20010;-62
2024/04/13 03:43:33;;;;;;;0.05;0.05;;;;;;;14.62;68.67;101265.25;7365153;19;20011;-62
2024/04/13 03:45:59;;;;;;;0.17;0.17;;;;;;;14.62;69.02;101260.00;7360469;19;20089;-62
2024/04/13 03:48:24;;;;;;;0.10;0.10;;;;;;;14.62;68.88;101263.50;7360799;19;20103;-61
2024/04/13 03:50:50;;;;;;;0.10;0.10;;;;;;;14.62;69.04;101263.50;7361796;19;20453;-61
2024/04/13 03:53:15;;;;;;;0.10;0.10;;;;;;;14.62;69.07;101260.88;7365558;19;20027;-62
2024/04/13 03:55:41;;;;;;;0.10;0.10;;;;;;;14.63;69.26;101265.22;7345369;19;20093;-61
2024/04/13 03:58:06;;;;;;;0.10;0.10;;;;;;;14.60;69.09;101261.81;7364770;19;20041;-61
2024/04/13 04:00:31;;;;;;;0.13;0.13;;;;;;;14.64;68.89;101264.28;7361474;19;20090;-61
2024/04/13 04:02:57;;;;;;;0.10;0.10;;;;;;;14.65;69.15;101263.41;7363474;19;20045;-63
2024/04/13 04:05:23;;;;;;;0.20;0.20;;;;;;;14.59;69.24;101253.06;7354683;19;20018;-62
2024/04/13 04:07:48;;;;;;;0.10;0.10;;;;;;;14.66;68.96;101259.88;7364486;19;20458;-62
2024/04/13 04:10:13;;;;;;;0.10;0.10;;;;;;;14.67;69.19;101258.94;7360692;19;20106;-62
2024/04/13 04:12:39;;;;;;;0.10;0.10;;;;;;;14.67;68.63;101258.94;7363818;19;20007;-61
2024/04/13 04:15:05;;;;;;;0.10;0.10;;;;;;;14.69;68.58;101265.00;7359090;19;20037;-63
2024/04/13 04:17:31;;;;;;;0.10;0.10;;;;;;;14.66;68.75;101251.13;7359350;19;20014;-62
2024/04/13 04:19:56;;;;;;;0.10;0.10;;;;;;;14.69;68.62;101249.25;7356103;19;20032;-61
2024/04/13 04:22:22;;;;;;;0.10;0.10;;;;;;;14.70;68.39;101237.84;7364757;19;20010;-61
2024/04/13 04:24:47;;;;;;;0.10;0.10;;;;;;;14.69;68.76;101241.34;7361321;19;20502;-61
2024/04/13 04:27:12;;;;;;;0.10;0.10;;;;;;;14.71;68.55;101239.56;7359954;19;20101;-62
2024/04/13 04:29:40;;;;;;;0.10;0.10;;;;;;;14.70;68.39;101248.34;7362765;19;20058;-62
2024/04/13 04:32:06;;;;;;;0.10;0.10;;;;;;;14.65;68.31;101245.00;7358715;19;20701;-62
2024/04/13 04:34:32;;;;;;;0.10;0.10;;;;;;;14.70;68.56;101248.34;7362248;19;20025;-62
2024/04/13 04:36:57;;;;;;;0.10;0.10;;;;;;;14.72;68.63;101246.53;7362358;19;20011;-62
2024/04/13 04:39:22;;;;;;;0.10;0.10;;;;;;;14.61;68.46;101235.50;7362074;19;20017;-61
2024/04/13 04:41:48;;;;;;;0.10;0.10;;;;;;;14.70;69.12;101237.84;7360328;19;20044;-63
2024/04/13 04:44:13;;;;;;;0.20;0.20;;;;;;;14.70;69.05;101237.84;7362384;19;20006;-62
2024/04/13 04:46:39;;;;;;;0.10;0.10;;;;;;;14.71;68.73;101229.03;7362129;19;20030;-62
2024/04/13 04:49:05;;;;;;;0.10;0.10;;;;;;;14.65;68.71;101220.47;7363274;19;20006;-63
2024/04/13 04:51:31;;;;;;;0.05;0.05;;;;;;;14.73;68.55;101234.25;7369373;19;20022;-61
2024/04/13 04:53:58;;;;;;;0.10;0.10;;;;;;;14.73;68.43;101232.47;7368372;19;20518;-62
2024/04/13 04:56:23;;;;;;;0.10;0.10;;;;;;;14.70;68.94;101232.59;7367612;19;20014;-62
2024/04/13 04:58:51;;;;;;;0.10;0.10;;;;;;;14.75;68.79;101242.94;7364848;19;20872;-61
2024/04/13 05:01:16;;;;;;;0.15;0.15;;;;;;;14.74;68.61;101239.44;7369356;19;20094;-62
2024/04/13 05:03:42;;;;;;;0.10;0.10;;;;;;;14.75;68.66;101240.28;7366299;19;20121;-62
2024/04/13 05:06:08;;;;;;;0.10;0.10;;;;;;;14.76;68.82;101236.78;7365943;19;20011;-62
2024/04/13 05:08:34;;;;;;;0.10;0.10;;;;;;;14.77;68.44;101249.00;7366236;19;20026;-61
2024/04/13 05:10:59;;;;;;;0.10;0.10;;;;;;;14.76;68.80;101232.38;7370452;19;20056;-61
2024/04/13 05:13:25;;;;;;;0.00;0.00;;;;;;;14.78;68.75;101230.56;7363047;19;20010;-62
2024/04/13 05:15:51;;;;;;;0.10;0.10;;;;;;;14.79;68.63;101224.38;7367317;19;20010;-61
2024/04/13 05:18:16;;;;;;;0.20;0.20;;;;;;;14.75;68.79;101217.53;7365040;19;20014;-62
2024/04/13 05:20:41;;;;;;;0.13;0.13;;;;;;;14.82;68.62;101230.47;7368807;19;21911;-62
2024/04/13 05:23:07;;;;;;;0.10;0.10;;;;;;;14.70;68.72;101208.94;7366432;19;20006;-61
2024/04/13 05:25:33;;;;;;;0.10;0.10;;;;;;;14.82;68.47;101225.22;7362033;19;20014;-62
2024/04/13 05:27:58;;;;;;;0.10;0.10;;;;;;;14.83;68.93;101229.56;7367343;19;20047;-61
2024/04/13 05:30:24;;;;;;;0.20;0.20;;;;;;;14.84;68.69;101226.00;7367122;19;20021;-61
2024/04/13 05:32:50;;;;;;;0.10;0.10;;;;;;;14.83;68.58;101216.41;7361078;19;20002;-61
2024/04/13 05:35:16;;;;;;;0.10;0.10;;;;;;;14.83;68.56;101217.25;7366858;19;20011;-62
2024/04/13 05:37:42;;;;;;;0.10;0.10;;;;;;;14.77;68.30;101199.91;7362993;19;20023;-62
2024/04/13 05:40:08;;;;;;;0.10;0.10;;;;;;;14.80;68.08;101209.50;7367077;19;20019;-62
2024/04/13 05:42:34;;;;;;;0.10;0.10;;;;;;;14.76;68.62;101202.59;7366049;19;20014;-62
2024/04/13 05:44:59;;;;;;;0.10;0.10;;;;;;;14.77;68.41;101209.59;7368440;19;20007;-61
2024/04/13 05:47:24;;;;;;;0.10;0.10;;;;;;;14.76;68.56;101215.75;7363219;19;20042;-62
2024/04/13 05:49:51;;;;;;;0.10;0.10;;;;;;;14.74;68.49;101221.03;7366222;19;20094;-62
2024/04/13 05:52:16;;;;;;;0.10;0.10;;;;;;;14.72;68.24;101209.72;7360104;19;20103;-62
2024/04/13 05:54:41;;;;;;;0.10;0.10;;;;;;;14.66;68.56;101202.03;7368504;19;20002;-62
2024/04/13 05:57:07;;;;;;;0.10;0.10;;;;;;;14.68;68.68;101208.09;7361333;19;20126;-62
2024/04/13 05:59:32;;;;;;;0.10;0.10;;;;;;;14.66;68.70;101204.66;7362484;19;20006;-61
2024/04/13 06:01:58;;;;;;;0.10;0.10;;;;;;;14.66;68.38;101201.19;7363102;19;20002;-61
2024/04/13 06:04:23;;;;;;;0.20;0.20;;;;;;;14.54;68.64;101195.38;7366498;19;20412;-61
2024/04/13 06:06:50;;;;;;;0.10;0.10;;;;;;;14.63;68.83;101204.75;7363908;19;20002;-62
2024/04/13 06:09:16;;;;;;;0.10;0.10;;;;;;;14.63;68.55;101210.00;7366448;19;20015;-61
2024/04/13 06:11:41;;;;;;;0.10;0.10;;;;;;;14.62;69.10;101203.03;7360195;19;20010;-62
2024/04/13 06:14:07;;;;;;;0.10;0.10;;;;;;;14.62;68.82;101210.91;7363298;19;20405;-62
2024/04/13 06:16:33;;;;;;;0.10;0.10;;;;;;;14.63;68.72;101214.41;7362890;19;20290;-62
2024/04/13 06:18:58;;;;;;;0.10;0.10;;;;;;;14.62;68.71;101203.03;7365124;19;20074;-62
2024/04/13 06:21:24;;;;;;;0.15;0.15;;;;;;;14.62;68.80;101208.28;7361427;19;20041;-62
2024/04/13 06:23:50;;;;;;;0.20;0.20;;;;;;;14.50;68.80;101177.16;7365842;19;20011;-62
2024/04/13 06:26:16;;;;;;;0.10;0.10;;;;;;;14.62;69.00;101189.91;7361675;19;20405;-62
2024/04/13 06:28:41;;;;;;;0.10;0.10;;;;;;;14.63;68.90;101181.09;7363478;19;20011;-61
2024/04/13 06:31:06;;;;;;;0.20;0.20;;;;;;;14.63;69.02;101178.47;7363679;19;20007;-61
2024/04/13 06:33:33;;;;;;;0.10;0.10;;;;;;;14.62;69.06;101171.50;7364987;19;20079;-62
2024/04/13 06:35:59;;;;;;;0.10;0.10;;;;;;;14.55;68.73;101146.34;7361715;19;20014;-61
2024/04/13 06:38:26;;;;;;;0.10;0.10;;;;;;;14.65;68.65;101160.91;7364376;19;20024;-62
2024/04/13 06:40:51;;;;;;;0.10;0.10;;;;;;;14.66;69.00;101146.84;7365932;19;20854;-62
2024/04/13 06:43:17;;;;;;;0.10;0.10;;;;;;;14.69;69.03;101151.13;7364699;19;20011;-62
2024/04/13 06:45:42;;;;;;;0.10;0.10;;;;;;;14.70;68.90;101164.25;7365641;19;20085;-61
2024/04/13 06:48:08;;;;;;;0.10;0.10;;;;;;;14.71;69.07;101159.84;7354951;19;20011;-61
2024/04/13 06:50:34;;;;;;;0.10;0.10;;;;;;;14.73;68.74;101147.50;7363903;19;20344;-62
2024/04/13 06:52:59;;;;;;;0.10;0.10;;;;;;;14.73;68.54;101150.97;7342690;19;20014;-61
2024/04/13 06:55:25;;;;;;;0.20;0.20;;;;;;;14.75;68.71;101157.06;7366846;19;20455;-62
2024/04/13 06:57:50;;;;;;;0.10;0.10;;;;;;;14.77;68.87;101155.22;7360212;19;20045;-62
2024/04/13 07:00:16;;;;;;;0.17;0.17;;;;;;;14.79;68.85;101152.53;7364626;19;20030;-61
2024/04/13 07:02:41;;;;;;;0.20;0.20;;;;;;;14.82;68.25;101148.97;7366336;19;20057;-62
2024/04/13 07:05:07;;;;;;;0.10;0.10;;;;;;;14.84;68.54;101152.38;7361019;19;20018;-61
2024/04/13 07:07:32;;;;;;;0.10;0.10;;;;;;;14.78;68.34;101130.66;7365873;19;20023;-61
2024/04/13 07:09:58;;;;;;;0.10;0.10;;;;;;;14.87;68.67;101140.00;7366256;19;20010;-61
2024/04/13 07:12:23;;;;;;;0.10;0.10;;;;;;;14.81;68.32;101137.59;7363375;19;20030;-61
2024/04/13 07:14:49;;;;;;;0.10;0.10;;;;;;;14.94;68.17;101133.63;7364468;19;20010;-62
2024/04/13 07:17:14;;;;;;;0.20;0.20;;;;;;;14.96;68.35;101115.19;7358210;19;20014;-62
2024/04/13 07:19:39;;;;;;;0.10;0.10;;;;;;;14.98;68.03;101106.31;7361844;19;20014;-61
2024/04/13 07:22:05;;;;;;;0.10;0.10;;;;;;;15.00;68.38;101103.63;7360208;19;20021;-61
2024/04/13 07:24:30;;;;;;;0.10;0.10;;;;;;;15.02;68.00;101092.16;7362839;19;20042;-62
2024/04/13 07:26:55;;;;;;;0.10;0.10;;;;;;;15.07;68.18;101089.34;7361203;19;20013;-63
2024/04/13 07:29:21;;;;;;;0.15;0.15;;;;;;;15.08;68.21;101084.97;7361207;19;20006;-62
2024/04/13 07:31:46;;;;;;;0.10;0.10;;;;;;;15.15;68.11;101082.03;7359279;19;20038;-61
2024/04/13 07:34:12;;;;;;;0.10;0.10;;;;;;;15.19;67.62;101086.28;7359504;19;20097;-62
2024/04/13 07:36:37;;;;;;;0.13;0.13;;;;;;;15.21;67.52;101081.00;7363996;19;20002;-62
2024/04/13 07:39:02;;;;;;;0.10;0.10;;;;;;;15.20;67.69;101079.25;7361555;19;20014;-62
2024/04/13 07:41:28;;;;;;;0.10;0.10;;;;;;;15.28;67.39;101075.44;7365221;19;20027;-62
2024/04/13 07:43:53;;;;;;;0.20;0.20;;;;;;;15.32;67.29;101086.72;7360371;19;20021;-61
2024/04/13 07:46:21;;;;;;;0.10;0.10;;;;;;;15.32;67.39;101079.69;7362606;19;20011;-61
2024/04/13 07:48:46;;;;;;;0.10;0.10;;;;;;;15.36;67.12;101079.53;7354771;19;20021;-61
2024/04/13 07:51:12;;;;;;;0.10;0.10;;;;;;;15.42;67.34;101089.88;7361468;19;20363;-61
2024/04/13 07:53:37;;;;;;;0.10;0.10;;;;;;;15.45;67.24;101076.59;7358523;19;20018;-61
2024/04/13 07:56:03;;;;;;;0.10;0.10;;;;;;;15.51;66.95;101095.66;7363712;19;20031;-61
2024/04/13 07:58:28;;;;;;;0.10;0.10;;;;;;;15.55;66.85;101091.13;7360107;19;20034;-62
2024/04/13 08:00:54;;;;;;;0.10;0.10;;;;;;;15.58;66.85;101080.50;7360135;19;20010;-62
2024/04/13 08:03:20;;;;;;;0.10;0.10;;;;;;;15.60;66.43;101076.00;7357699;19;20023;-62
2024/04/13 08:05:46;;;;;;;0.10;0.10;;;;;;;15.54;66.38;101068.34;7357338;19;20014;-62
2024/04/13 08:08:11;;;;;;;0.10;0.10;;;;;;;15.51;66.36;101042.13;7357844;19;20015;-61
2024/04/13 08:10:42;;;;;;;0.10;0.10;;;;;;;15.72;66.30;101051.06;7356449;19;20018;-61
2024/04/13 08:13:08;;;;;;;0.13;0.13;;;;;;;15.72;65.71;101051.06;7352781;19;20074;-62
2024/04/13 08:15:37;;;;;;;0.20;0.20;;;;;;;15.76;65.72;101050.88;7360371;19;20097;-61
2024/04/13 08:18:03;;;;;;;0.10;0.10;;;;;;;15.75;65.84;101049.13;7364379;19;20520;-62
2024/04/13 08:20:28;;;;;;;0.10;0.10;;;;;;;15.79;65.94;101045.47;7357640;19;20002;-62
2024/04/13 08:22:53;;;;;;;0.13;0.13;;;;;;;15.81;65.87;101050.66;7364689;19;20038;-61
2024/04/13 08:25:19;;;;;;;0.10;0.10;;;;;;;15.89;65.74;101047.75;7369839;19;20022;-62
2024/04/13 08:27:45;;;;;;;0.10;0.10;;;;;;;15.92;65.83;101037.13;7369630;19;20007;-61
2024/04/13 08:30:11;;;;;;;0.10;0.10;;;;;;;15.95;65.74;101027.28;7366978;19;20010;-62
2024/04/13 08:32:37;;;;;;;0.10;0.10;;;;;;;16.01;65.05;101042.84;7364209;19;20102;-61
2024/04/13 08:35:05;;;;;;;0.10;0.10;;;;;;;16.04;64.93;101032.19;7367947;19;20006;-61
2024/04/13 08:37:31;;;;;;;0.10;0.10;;;;;;;16.06;65.11;101026.84;7372217;19;20018;-61
2024/04/13 08:39:56;;;;;;;0.10;0.10;;;;;;;16.10;65.09;101031.09;7363993;19;20015;-61
2024/04/13 08:42:34;;;;;;;0.10;0.10;;;;;;;16.20;64.63;101027.16;7367063;19;20018;-61
2024/04/13 08:45:00;;;;;;;0.10;0.10;;;;;;;16.19;64.45;101024.59;7370089;19;20022;-62
2024/04/13 08:47:31;;;;;;;0.10;0.10;;;;;;;16.25;64.38;101022.56;7363394;19;20493;-61
2024/04/13 08:49:58;;;;;;;0.10;0.10;;;;;;;16.31;64.74;101045.16;7368282;19;20026;-62
2024/04/13 08:52:25;;;;;;;0.10;0.10;;;;;;;16.32;63.37;101020.53;7365868;19;20089;-62
2024/04/13 08:54:50;;;;;;;0.10;0.10;;;;;;;16.30;64.43;101007.41;7365311;19;20015;-61
2024/04/13 08:57:22;;;;;;;0.10;0.10;;;;;;;16.44;64.34;101013.91;7362845;19;20038;-61
2024/04/13 08:59:49;;;;;;;0.10;0.10;;;;;;;16.47;63.79;101009.34;7367984;19;20469;-61
2024/04/13 09:02:16;;;;;;;0.05;0.05;;;;;;;16.33;64.72;100977.47;7366387;19;20895;-61
2024/04/13 09:04:42;;;;;;;0.10;0.10;;;;;;;16.65;63.59;101002.44;7366284;19;20022;-60
2024/04/13 09:07:07;;;;;;;0.10;0.10;;;;;;;16.75;63.13;101003.78;7368593;19;20030;-61
2024/04/13 09:09:34;;;;;;;0.10;0.10;;;;;;;16.88;62.42;100992.69;7367725;19;20077;-62
2024/04/13 09:12:00;;;;;;;0.10;0.10;;;;;;;16.98;62.82;101001.91;7365981;19;20026;-62
2024/04/13 09:14:26;;;;;;;0.10;0.10;;;;;;;17.08;62.05;100995.28;7366266;19;20363;-62
2024/04/13 09:16:51;;;;;;;0.08;0.08;;;;;;;17.20;62.59;101005.31;7354992;19;19998;-61
2024/04/13 09:19:17;;;;;;;0.10;0.10;;;;;;;17.26;60.92;101002.38;7363416;19;20047;-62
2024/04/13 09:21:43;;;;;;;0.13;0.13;;;;;;;17.30;61.41;101000.47;7343329;19;20011;-62
2024/04/13 09:24:09;;;;;;;0.10;0.10;;;;;;;17.25;59.93;100966.38;7363191;19;20016;-62
2024/04/13 09:26:46;;;;;;;0.13;0.13;;;;;;;17.53;62.07;100986.19;7355343;19;21968;-62
2024/04/13 09:29:13;;;;;;;0.10;0.10;;;;;;;17.64;60.36;100989.22;7365768;19;20019;-61
2024/04/13 09:31:42;;;;;;;0.10;0.10;;;;;;;17.79;59.04;100969.13;7364416;19;20082;-62
2024/04/13 09:34:16;;;;;;;0.10;0.10;;;;;;;18.04;60.79;100968.78;7355882;19;20533;-62
2024/04/13 09:36:42;;;;;;;0.10;0.10;;;;;;;18.36;60.33;100959.25;7363518;19;20014;-62
2024/04/13 09:39:07;;;;;;;0.10;0.10;;;;;;;18.56;58.60;100967.03;7359680;19;21140;-61
2024/04/13 09:41:32;;;;;;;0.10;0.10;;;;;;;18.80;57.73;100964.91;7364087;19;20553;-61
2024/04/13 09:43:58;;;;;;;0.10;0.10;;;;;;;18.95;57.53;100950.00;7357192;19;20547;-61
2024/04/13 09:46:25;;;;;;;0.10;0.10;;;;;;;19.17;57.46;100947.94;7340845;19;20033;-62
2024/04/13 09:48:54;;;;;;;0.15;0.15;;;;;;;19.41;57.09;100964.28;7358879;19;20045;-62
2024/04/13 09:51:19;;;;;;;0.10;0.10;;;;;;;19.55;54.63;100959.97;7359457;19;20013;-61
2024/04/13 09:53:47;;;;;;;0.10;0.10;;;;;;;19.64;54.44;100959.50;7365642;19;20015;-62
2024/04/13 09:56:13;;;;;;;0.10;0.10;;;;;;;19.72;54.59;100983.78;7360461;19;20024;-61
2024/04/13 09:58:38;;;;;;;0.10;0.10;;;;;;;19.90;54.28;100956.22;7359995;19;20483;-61
2024/04/13 10:01:05;;;;;;;0.10;0.10;;;;;;;19.93;51.65;100940.16;7361020;19;20089;-62
2024/04/13 10:03:31;;;;;;;0.10;0.10;;;;;;;20.08;51.15;100958.75;7327623;19;20031;-62
2024/04/13 10:05:57;;;;;;;0.10;0.10;;;;;;;20.05;51.03;100937.72;7359317;19;20036;-61
2024/04/13 10:08:25;;;;;;;0.10;0.10;;;;;;;20.10;49.63;100939.16;7359610;19;20529;-60
2024/04/13 10:10:52;;;;;;;0.10;0.10;;;;;;;20.16;50.34;100961.81;7361221;19;20470;-61
2024/04/13 10:13:28;;;;;;;0.10;0.10;;;;;;;20.14;50.56;100964.56;7361410;19;20022;-62
2024/04/13 10:15:57;;;;;;;0.10;0.10;;;;;;;20.11;50.48;100942.66;7359423;19;20025;-62
2024/04/13 10:18:23;;;;;;;0.10;0.10;;;;;;;20.10;49.79;100940.97;7361506;19;20015;-61
2024/04/13 10:20:48;;;;;;;0.15;0.15;;;;;;;20.21;51.09;100943.81;7361124;19;20018;-61
2024/04/13 10:23:14;;;;;;;0.10;0.10;;;;;;;20.33;48.67;100945.78;7358985;19;20031;-61
2024/04/13 10:25:40;;;;;;;0.10;0.10;;;;;;;20.51;49.16;100945.63;7357860;19;20015;-62
2024/04/13 10:28:06;;;;;;;0.10;0.10;;;;;;;20.70;47.22;100935.63;7362667;19;20014;-62
2024/04/13 10:30:46;;;;;;;0.20;0.20;;;;;;;20.96;48.47;100953.44;7359900;19;20014;-61
2024/04/13 10:33:25;;;;;;;0.13;0.13;;;;;;;21.20;48.61;100950.22;7360200;19;20010;-62
2024/04/13 10:36:02;;;;;;;0.10;0.10;;;;;;;21.37;46.19;100957.97;7357027;19;20029;-62
2024/04/13 10:38:33;;;;;;;0.10;0.10;;;;;;;21.27;45.19;100934.72;7360395;19;20495;-62
2024/04/13 10:40:59;;;;;;;0.20;0.20;;;;;;;21.42;43.45;100955.03;7363093;19;20503;-62
2024/04/13 10:43:25;;;;;;;0.10;0.10;;;;;;;21.40;43.09;100955.13;7360753;19;20816;-61
2024/04/13 10:45:56;;;;;;;0.10;0.10;;;;;;;21.40;43.72;100949.81;7360921;19;20010;-61
2024/04/13 10:48:22;;;;;;;0.10;0.10;;;;;;;21.38;42.08;100948.19;7359263;19;20700;-61
2024/04/13 10:50:48;;;;;;;0.20;0.20;;;;;;;21.33;42.91;100955.59;7356844;19;20021;-61
2024/04/13 10:53:15;;;;;;;0.20;0.20;;;;;;;21.26;43.08;100957.78;7359316;19;20840;-62
2024/04/13 10:55:40;;;;;;;0.10;0.10;;;;;;;21.22;43.50;100921.72;7357858;19;20771;-61
2024/04/13 10:58:07;;;;;;;0.13;0.13;;;;;;;21.35;42.70;100965.22;7357269;19;20020;-61
2024/04/13 11:00:33;;;;;;;0.10;0.10;;;;;;;21.32;43.03;100970.69;7362696;19;20037;-61
2024/04/13 11:02:58;;;;;;;0.10;0.10;;;;;;;21.36;43.41;100966.06;7361050;19;20014;-62
2024/04/13 11:05:24;;;;;;;0.10;0.10;;;;;;;21.40;42.98;100951.63;7354666;19;20693;-62
2024/04/13 11:07:52;;;;;;;0.10;0.10;;;;;;;21.44;44.44;100947.81;7357941;19;20474;-61
2024/04/13 11:10:18;;;;;;;0.10;0.10;;;;;;;21.60;44.70;100953.00;7359933;19;20078;-62
2024/04/13 11:12:44;;;;;;;0.17;0.17;;;;;;;21.85;44.11;100963.75;7357965;19;20010;-62
2024/04/13 11:15:10;;;;;;;0.10;0.10;;;;;;;22.09;45.69;100971.03;7361740;19;20118;-61
2024/04/13 11:17:35;;;;;;;0.10;0.10;;;;;;;22.24;45.73;100975.38;7360728;19;20018;-61
2024/04/13 11:20:01;;;;;;;0.10;0.10;;;;;;;22.28;43.87;100982.19;7358498;19;20098;-61